sensor_id;sensor_type;location;lat;lon;timestamp;temperature;humidity
68274;SHT30;55104;47.356;19.448;2023-04-03T00:02:43;8.01;90.87
68274;SHT30;55104;47.356;19.448;2023-04-03T00:05:46;7.99;91.21
68274;SHT30;55104;47.356;19.448;2023-04-03T00:08:48;7.81;91.69
68274;SHT30;55104;47.356;19.448;2023-04-03T00:11:51;7.80;92.08
68274;SHT30;55104;47.356;19.448;2023-04-03T00:14:52;7.77;92.30
68274;SHT30;55104;47.356;19.448;2023-04-03T00:17:54;7.80;92.50
68274;SHT30;55104;47.356;19.448;2023-04-03T00:20:57;7.84;92.58
68274;SHT30;55104;47.356;19.448;2023-04-03T00:23:59;7.78;92.54
68274;SHT30;55104;47.356;19.448;2023-04-03T00:27:01;7.84;92.50
68274;SHT30;55104;47.356;19.448;2023-04-03T00:30:03;7.82;92.17
68274;SHT30;55104;47.356;19.448;2023-04-03T00:33:06;7.82;92.48
68274;SHT30;55104;47.356;19.448;2023-04-03T00:36:09;7.78;92.66
68274;SHT30;55104;47.356;19.448;2023-04-03T00:39:12;7.85;92.32
68274;SHT30;55104;47.356;19.448;2023-04-03T00:42:14;7.78;90.98
68274;SHT30;55104;47.356;19.448;2023-04-03T00:48:38;7.56;84.18
68274;SHT30;55104;47.356;19.448;2023-04-03T00:51:42;7.52;83.79
68274;SHT30;55104;47.356;19.448;2023-04-03T00:54:46;7.42;84.07
68274;SHT30;55104;47.356;19.448;2023-04-03T00:57:49;7.35;83.92
68274;SHT30;55104;47.356;19.448;2023-04-03T01:00:55;7.20;84.49
68274;SHT30;55104;47.356;19.448;2023-04-03T01:04:00;7.20;85.58
68274;SHT30;55104;47.356;19.448;2023-04-03T01:07:29;7.12;86.13
68274;SHT30;55104;47.356;19.448;2023-04-03T01:10:31;7.09;85.20
68274;SHT30;55104;47.356;19.448;2023-04-03T01:13:34;7.11;85.44
68274;SHT30;55104;47.356;19.448;2023-04-03T01:16:37;6.99;85.75
68274;SHT30;55104;47.356;19.448;2023-04-03T01:19:41;7.02;85.65
68274;SHT30;55104;47.356;19.448;2023-04-03T01:26:03;6.99;86.00
68274;SHT30;55104;47.356;19.448;2023-04-03T01:29:05;6.92;85.93
68274;SHT30;55104;47.356;19.448;2023-04-03T01:32:07;6.97;86.26
68274;SHT30;55104;47.356;19.448;2023-04-03T01:35:11;6.94;86.60
68274;SHT30;55104;47.356;19.448;2023-04-03T01:38:13;6.88;85.44
68274;SHT30;55104;47.356;19.448;2023-04-03T01:41:15;6.80;85.31
68274;SHT30;55104;47.356;19.448;2023-04-03T01:44:19;6.77;84.69
68274;SHT30;55104;47.356;19.448;2023-04-03T01:47:21;6.69;85.00
68274;SHT30;55104;47.356;19.448;2023-04-03T01:50:24;6.56;86.93
68274;SHT30;55104;47.356;19.448;2023-04-03T01:53:27;6.60;87.56
68274;SHT30;55104;47.356;19.448;2023-04-03T01:56:29;6.36;88.10
68274;SHT30;55104;47.356;19.448;2023-04-03T01:59:32;6.33;87.70
68274;SHT30;55104;47.356;19.448;2023-04-03T02:02:34;6.21;88.08
68274;SHT30;55104;47.356;19.448;2023-04-03T02:05:37;6.26;87.21
68274;SHT30;55104;47.356;19.448;2023-04-03T02:08:40;6.09;88.14
68274;SHT30;55104;47.356;19.448;2023-04-03T02:11:43;6.18;88.34
68274;SHT30;55104;47.356;19.448;2023-04-03T02:14:46;6.09;87.95
68274;SHT30;55104;47.356;19.448;2023-04-03T02:17:47;6.16;88.44
68274;SHT30;55104;47.356;19.448;2023-04-03T02:20:50;6.08;88.45
68274;SHT30;55104;47.356;19.448;2023-04-03T02:23:53;6.06;88.72
68274;SHT30;55104;47.356;19.448;2023-04-03T02:26:55;6.05;88.57
68274;SHT30;55104;47.356;19.448;2023-04-03T02:29:57;6.11;88.54
68274;SHT30;55104;47.356;19.448;2023-04-03T02:32:59;6.04;88.55
68274;SHT30;55104;47.356;19.448;2023-04-03T02:36:03;6.06;88.43
68274;SHT30;55104;47.356;19.448;2023-04-03T02:39:06;6.05;87.56
68274;SHT30;55104;47.356;19.448;2023-04-03T02:42:10;6.09;87.21
68274;SHT30;55104;47.356;19.448;2023-04-03T02:45:12;6.09;87.17
68274;SHT30;55104;47.356;19.448;2023-04-03T02:48:14;6.16;86.87
68274;SHT30;55104;47.356;19.448;2023-04-03T02:51:18;6.15;86.79
68274;SHT30;55104;47.356;19.448;2023-04-03T02:54:20;6.15;87.07
68274;SHT30;55104;47.356;19.448;2023-04-03T02:57:28;6.14;86.63
68274;SHT30;55104;47.356;19.448;2023-04-03T03:00:30;6.15;86.98
68274;SHT30;55104;47.356;19.448;2023-04-03T03:03:32;6.15;87.20
68274;SHT30;55104;47.356;19.448;2023-04-03T03:06:34;6.19;87.19
68274;SHT30;55104;47.356;19.448;2023-04-03T03:09:37;6.15;87.37
68274;SHT30;55104;47.356;19.448;2023-04-03T03:12:40;6.06;87.35
68274;SHT30;55104;47.356;19.448;2023-04-03T03:15:42;6.02;87.54
68274;SHT30;55104;47.356;19.448;2023-04-03T03:18:44;5.87;87.63
68274;SHT30;55104;47.356;19.448;2023-04-03T03:21:46;5.93;87.53
68274;SHT30;55104;47.356;19.448;2023-04-03T03:24:48;5.86;87.53
68274;SHT30;55104;47.356;19.448;2023-04-03T03:27:51;5.90;86.54
68274;SHT30;55104;47.356;19.448;2023-04-03T03:30:53;5.84;86.98
68274;SHT30;55104;47.356;19.448;2023-04-03T03:33:56;5.95;87.00
68274;SHT30;55104;47.356;19.448;2023-04-03T03:36:58;5.88;86.33
68274;SHT30;55104;47.356;19.448;2023-04-03T03:40:00;5.84;86.37
68274;SHT30;55104;47.356;19.448;2023-04-03T03:43:03;5.99;85.96
68274;SHT30;55104;47.356;19.448;2023-04-03T03:46:05;5.87;85.81
68274;SHT30;55104;47.356;19.448;2023-04-03T03:49:07;5.81;86.14
68274;SHT30;55104;47.356;19.448;2023-04-03T03:52:10;5.83;85.59
68274;SHT30;55104;47.356;19.448;2023-04-03T03:55:12;5.77;85.95
68274;SHT30;55104;47.356;19.448;2023-04-03T03:58:15;5.80;85.72
68274;SHT30;55104;47.356;19.448;2023-04-03T04:01:17;5.78;85.89
68274;SHT30;55104;47.356;19.448;2023-04-03T04:04:22;5.74;85.36
68274;SHT30;55104;47.356;19.448;2023-04-03T04:07:24;5.77;85.45
68274;SHT30;55104;47.356;19.448;2023-04-03T04:10:26;5.77;85.42
68274;SHT30;55104;47.356;19.448;2023-04-03T04:13:29;5.75;85.15
68274;SHT30;55104;47.356;19.448;2023-04-03T04:16:32;5.71;84.97
68274;SHT30;55104;47.356;19.448;2023-04-03T04:19:40;5.74;83.41
68274;SHT30;55104;47.356;19.448;2023-04-03T04:22:42;5.70;83.31
68274;SHT30;55104;47.356;19.448;2023-04-03T04:25:48;5.86;82.21
68274;SHT30;55104;47.356;19.448;2023-04-03T04:28:50;5.87;82.89
68274;SHT30;55104;47.356;19.448;2023-04-03T04:31:54;5.74;82.54
68274;SHT30;55104;47.356;19.448;2023-04-03T04:34:57;5.78;82.57
68274;SHT30;55104;47.356;19.448;2023-04-03T04:38:00;5.75;81.53
68274;SHT30;55104;47.356;19.448;2023-04-03T04:41:02;5.80;82.63
68274;SHT30;55104;47.356;19.448;2023-04-03T04:44:05;5.74;82.95
68274;SHT30;55104;47.356;19.448;2023-04-03T04:47:07;5.69;82.95
68274;SHT30;55104;47.356;19.448;2023-04-03T04:50:10;5.67;84.21
68274;SHT30;55104;47.356;19.448;2023-04-03T04:53:14;5.67;84.75
68274;SHT30;55104;47.356;19.448;2023-04-03T04:56:17;5.69;83.78
68274;SHT30;55104;47.356;19.448;2023-04-03T04:59:20;5.70;83.68
68274;SHT30;55104;47.356;19.448;2023-04-03T05:02:24;5.73;83.83
68274;SHT30;55104;47.356;19.448;2023-04-03T05:05:26;5.69;83.39
68274;SHT30;55104;47.356;19.448;2023-04-03T05:08:28;5.73;83.56
68274;SHT30;55104;47.356;19.448;2023-04-03T05:11:32;5.90;83.47
68274;SHT30;55104;47.356;19.448;2023-04-03T05:14:34;5.70;81.28
68274;SHT30;55104;47.356;19.448;2023-04-03T05:17:40;5.75;82.17
68274;SHT30;55104;47.356;19.448;2023-04-03T05:20:48;5.84;81.71
68274;SHT30;55104;47.356;19.448;2023-04-03T05:23:52;5.93;80.01
68274;SHT30;55104;47.356;19.448;2023-04-03T05:26:55;5.94;80.07
68274;SHT30;55104;47.356;19.448;2023-04-03T05:29:57;5.88;79.76
68274;SHT30;55104;47.356;19.448;2023-04-03T05:33:01;5.78;79.01
68274;SHT30;55104;47.356;19.448;2023-04-03T05:36:13;5.93;79.90
68274;SHT30;55104;47.356;19.448;2023-04-03T05:39:19;5.95;79.13
68274;SHT30;55104;47.356;19.448;2023-04-03T05:42:22;5.91;79.27
68274;SHT30;55104;47.356;19.448;2023-04-03T05:45:24;5.98;79.04
68274;SHT30;55104;47.356;19.448;2023-04-03T05:48:27;6.04;78.10
68274;SHT30;55104;47.356;19.448;2023-04-03T05:51:33;6.16;77.67
68274;SHT30;55104;47.356;19.448;2023-04-03T05:54:42;6.08;78.22
68274;SHT30;55104;47.356;19.448;2023-04-03T05:57:51;6.08;77.55
68274;SHT30;55104;47.356;19.448;2023-04-03T06:00:53;6.14;77.29
68274;SHT30;55104;47.356;19.448;2023-04-03T06:03:55;6.18;74.67
68274;SHT30;55104;47.356;19.448;2023-04-03T06:06:57;6.28;75.15
68274;SHT30;55104;47.356;19.448;2023-04-03T06:10:01;6.24;73.35
68274;SHT30;55104;47.356;19.448;2023-04-03T06:13:03;6.46;73.17
68274;SHT30;55104;47.356;19.448;2023-04-03T06:16:05;6.46;73.71
68274;SHT30;55104;47.356;19.448;2023-04-03T06:19:08;6.61;73.14
68274;SHT30;55104;47.356;19.448;2023-04-03T06:22:14;6.70;73.36
68274;SHT30;55104;47.356;19.448;2023-04-03T06:25:17;6.84;73.40
68274;SHT30;55104;47.356;19.448;2023-04-03T06:28:20;6.92;73.62
68274;SHT30;55104;47.356;19.448;2023-04-03T06:31:22;6.84;70.83
68274;SHT30;55104;47.356;19.448;2023-04-03T06:34:25;7.01;71.53
68274;SHT30;55104;47.356;19.448;2023-04-03T06:37:27;6.83;70.96
68274;SHT30;55104;47.356;19.448;2023-04-03T06:40:30;6.81;72.12
68274;SHT30;55104;47.356;19.448;2023-04-03T06:43:33;7.12;72.29
68274;SHT30;55104;47.356;19.448;2023-04-03T06:46:35;7.18;71.28
68274;SHT30;55104;47.356;19.448;2023-04-03T06:49:37;7.19;70.40
68274;SHT30;55104;47.356;19.448;2023-04-03T06:52:40;7.35;72.54
68274;SHT30;55104;47.356;19.448;2023-04-03T06:55:42;7.46;71.29
68274;SHT30;55104;47.356;19.448;2023-04-03T06:58:45;7.40;69.11
68274;SHT30;55104;47.356;19.448;2023-04-03T07:01:48;7.60;69.36
68274;SHT30;55104;47.356;19.448;2023-04-03T07:04:50;7.67;70.10
68274;SHT30;55104;47.356;19.448;2023-04-03T07:07:53;7.69;69.96
68274;SHT30;55104;47.356;19.448;2023-04-03T07:10:55;7.80;68.21
68274;SHT30;55104;47.356;19.448;2023-04-03T07:13:57;7.80;68.50
68274;SHT30;55104;47.356;19.448;2023-04-03T07:16:59;7.80;68.28
68274;SHT30;55104;47.356;19.448;2023-04-03T07:20:02;7.94;67.34
68274;SHT30;55104;47.356;19.448;2023-04-03T07:23:05;7.87;66.61
68274;SHT30;55104;47.356;19.448;2023-04-03T07:26:08;7.92;67.90
68274;SHT30;55104;47.356;19.448;2023-04-03T07:29:11;7.97;65.96
68274;SHT30;55104;47.356;19.448;2023-04-03T07:32:13;8.03;67.34
68274;SHT30;55104;47.356;19.448;2023-04-03T07:35:15;8.08;68.09
68274;SHT30;55104;47.356;19.448;2023-04-03T07:38:18;8.06;66.76
68274;SHT30;55104;47.356;19.448;2023-04-03T07:41:20;8.06;67.24
68274;SHT30;55104;47.356;19.448;2023-04-03T07:44:24;7.99;67.95
68274;SHT30;55104;47.356;19.448;2023-04-03T07:47:26;7.98;68.03
68274;SHT30;55104;47.356;19.448;2023-04-03T07:50:28;7.98;66.42
68274;SHT30;55104;47.356;19.448;2023-04-03T07:53:32;8.28;66.99
68274;SHT30;55104;47.356;19.448;2023-04-03T07:56:34;8.21;66.44
68274;SHT30;55104;47.356;19.448;2023-04-03T07:59:37;8.36;67.33
68274;SHT30;55104;47.356;19.448;2023-04-03T08:02:39;8.53;67.08
68274;SHT30;55104;47.356;19.448;2023-04-03T08:05:42;8.80;66.66
68274;SHT30;55104;47.356;19.448;2023-04-03T08:08:44;8.89;67.30
68274;SHT30;55104;47.356;19.448;2023-04-03T08:11:47;9.07;66.74
68274;SHT30;55104;47.356;19.448;2023-04-03T08:14:49;9.49;66.52
68274;SHT30;55104;47.356;19.448;2023-04-03T08:17:51;9.61;65.22
68274;SHT30;55104;47.356;19.448;2023-04-03T08:20:53;9.26;64.66
68274;SHT30;55104;47.356;19.448;2023-04-03T08:23:55;9.30;64.27
68274;SHT30;55104;47.356;19.448;2023-04-03T08:26:58;9.35;65.51
68274;SHT30;55104;47.356;19.448;2023-04-03T08:29:59;9.35;66.28
68274;SHT30;55104;47.356;19.448;2023-04-03T08:33:03;9.64;65.49
68274;SHT30;55104;47.356;19.448;2023-04-03T08:36:20;9.51;65.03
68274;SHT30;55104;47.356;19.448;2023-04-03T08:39:22;9.63;64.00
68274;SHT30;55104;47.356;19.448;2023-04-03T08:45:59;9.74;64.56
68274;SHT30;55104;47.356;19.448;2023-04-03T08:49:04;9.95;64.34
68274;SHT30;55104;47.356;19.448;2023-04-03T08:52:13;9.36;65.13
68274;SHT30;55104;47.356;19.448;2023-04-03T08:55:31;9.77;63.76
68274;SHT30;55104;47.356;19.448;2023-04-03T08:58:48;9.78;63.40
68274;SHT30;55104;47.356;19.448;2023-04-03T09:01:51;9.71;63.97
68274;SHT30;55104;47.356;19.448;2023-04-03T09:04:53;9.61;63.81
68274;SHT30;55104;47.356;19.448;2023-04-03T09:08:05;9.84;63.75
68274;SHT30;55104;47.356;19.448;2023-04-03T09:11:25;9.85;63.15
68274;SHT30;55104;47.356;19.448;2023-04-03T09:14:38;10.28;63.82
68274;SHT30;55104;47.356;19.448;2023-04-03T09:17:53;10.21;59.96
68274;SHT30;55104;47.356;19.448;2023-04-03T09:21:10;10.25;60.07
68274;SHT30;55104;47.356;19.448;2023-04-03T09:24:15;10.26;61.25
68274;SHT30;55104;47.356;19.448;2023-04-03T09:27:18;10.16;62.31
68274;SHT30;55104;47.356;19.448;2023-04-03T09:30:23;10.25;59.03
68274;SHT30;55104;47.356;19.448;2023-04-03T09:33:26;10.16;60.21
68274;SHT30;55104;47.356;19.448;2023-04-03T09:36:43;10.26;61.39
68274;SHT30;55104;47.356;19.448;2023-04-03T09:39:52;10.26;59.11
68274;SHT30;55104;47.356;19.448;2023-04-03T09:43:00;10.12;58.33
68274;SHT30;55104;47.356;19.448;2023-04-03T09:46:26;9.77;58.22
68274;SHT30;55104;47.356;19.448;2023-04-03T09:49:29;10.23;59.78
68274;SHT30;55104;47.356;19.448;2023-04-03T09:52:32;10.28;57.94
68274;SHT30;55104;47.356;19.448;2023-04-03T09:55:43;10.35;56.48
68274;SHT30;55104;47.356;19.448;2023-04-03T09:58:48;10.38;58.47
68274;SHT30;55104;47.356;19.448;2023-04-03T10:02:00;10.45;55.10
68274;SHT30;55104;47.356;19.448;2023-04-03T10:05:05;10.45;55.37
68274;SHT30;55104;47.356;19.448;2023-04-03T10:11:31;10.83;56.78
68274;SHT30;55104;47.356;19.448;2023-04-03T10:15:10;10.98;54.40
68274;SHT30;55104;47.356;19.448;2023-04-03T10:18:31;10.46;55.57
68274;SHT30;55104;47.356;19.448;2023-04-03T10:24:54;10.77;54.67
68274;SHT30;55104;47.356;19.448;2023-04-03T10:31:49;11.23;54.31
68274;SHT30;55104;47.356;19.448;2023-04-03T10:35:08;11.46;54.11
68274;SHT30;55104;47.356;19.448;2023-04-03T10:38:18;11.28;54.03
68274;SHT30;55104;47.356;19.448;2023-04-03T10:42:06;10.97;53.13
68274;SHT30;55104;47.356;19.448;2023-04-03T10:51:31;11.80;54.07
68274;SHT30;55104;47.356;19.448;2023-04-03T10:54:39;11.81;53.32
68274;SHT30;55104;47.356;19.448;2023-04-03T10:57:43;12.24;53.38
68274;SHT30;55104;47.356;19.448;2023-04-03T11:00:48;12.32;53.79
68274;SHT30;55104;47.356;19.448;2023-04-03T11:03:57;12.07;51.61
68274;SHT30;55104;47.356;19.448;2023-04-03T11:07:14;12.22;52.11
68274;SHT30;55104;47.356;19.448;2023-04-03T11:10:24;12.29;52.17
68274;SHT30;55104;47.356;19.448;2023-04-03T11:13:34;12.32;51.19
68274;SHT30;55104;47.356;19.448;2023-04-03T11:16:43;11.76;51.82
68274;SHT30;55104;47.356;19.448;2023-04-03T11:20:14;11.98;55.16
68274;SHT30;55104;47.356;19.448;2023-04-03T11:26:30;11.70;52.85
68274;SHT30;55104;47.356;19.448;2023-04-03T11:29:36;11.52;50.74
68274;SHT30;55104;47.356;19.448;2023-04-03T11:32:52;11.26;52.04
68274;SHT30;55104;47.356;19.448;2023-04-03T11:36:01;11.67;53.90
68274;SHT30;55104;47.356;19.448;2023-04-03T11:39:26;11.65;53.27
68274;SHT30;55104;47.356;19.448;2023-04-03T11:42:38;11.88;52.06
68274;SHT30;55104;47.356;19.448;2023-04-03T11:46:01;12.04;49.32
68274;SHT30;55104;47.356;19.448;2023-04-03T11:49:04;11.97;49.26
68274;SHT30;55104;47.356;19.448;2023-04-03T11:52:10;12.32;51.68
68274;SHT30;55104;47.356;19.448;2023-04-03T11:58:27;11.63;50.60
68274;SHT30;55104;47.356;19.448;2023-04-03T12:05:27;12.20;51.01
68274;SHT30;55104;47.356;19.448;2023-04-03T12:11:35;12.56;50.54
68274;SHT30;55104;47.356;19.448;2023-04-03T12:14:38;12.61;48.60
68274;SHT30;55104;47.356;19.448;2023-04-03T12:17:40;12.36;51.61
68274;SHT30;55104;47.356;19.448;2023-04-03T12:24:04;12.64;51.96
68274;SHT30;55104;47.356;19.448;2023-04-03T12:27:17;12.76;48.90
68274;SHT30;55104;47.356;19.448;2023-04-03T12:30:26;13.35;49.12
68274;SHT30;55104;47.356;19.448;2023-04-03T12:36:49;13.00;46.90
68274;SHT30;55104;47.356;19.448;2023-04-03T12:40:27;12.43;49.39
68274;SHT30;55104;47.356;19.448;2023-04-03T12:46:50;11.26;52.22
68274;SHT30;55104;47.356;19.448;2023-04-03T12:49:53;11.03;53.90
68274;SHT30;55104;47.356;19.448;2023-04-03T12:56:29;10.68;53.55
68274;SHT30;55104;47.356;19.448;2023-04-03T12:59:34;10.49;54.41
68274;SHT30;55104;47.356;19.448;2023-04-03T13:02:37;10.55;54.32
68274;SHT30;55104;47.356;19.448;2023-04-03T13:05:39;10.64;54.64
68274;SHT30;55104;47.356;19.448;2023-04-03T13:08:50;10.78;53.50
68274;SHT30;55104;47.356;19.448;2023-04-03T13:12:14;10.73;54.10
68274;SHT30;55104;47.356;19.448;2023-04-03T13:15:41;10.53;53.05
68274;SHT30;55104;47.356;19.448;2023-04-03T13:18:50;10.49;51.82
68274;SHT30;55104;47.356;19.448;2023-04-03T13:22:29;10.60;50.58
68274;SHT30;55104;47.356;19.448;2023-04-03T13:25:35;10.67;51.61
68274;SHT30;55104;47.356;19.448;2023-04-03T13:28:39;10.97;52.14
68274;SHT30;55104;47.356;19.448;2023-04-03T13:31:42;11.04;51.24
68274;SHT30;55104;47.356;19.448;2023-04-03T13:34:44;10.76;50.01
68274;SHT30;55104;47.356;19.448;2023-04-03T13:37:56;10.56;50.59
68274;SHT30;55104;47.356;19.448;2023-04-03T13:41:02;10.71;50.97
68274;SHT30;55104;47.356;19.448;2023-04-03T13:47:20;10.78;50.68
68274;SHT30;55104;47.356;19.448;2023-04-03T13:50:26;10.53;50.30
68274;SHT30;55104;47.356;19.448;2023-04-03T13:53:30;10.48;50.67
68274;SHT30;55104;47.356;19.448;2023-04-03T13:56:37;10.43;50.66
68274;SHT30;55104;47.356;19.448;2023-04-03T13:59:40;10.40;51.12
68274;SHT30;55104;47.356;19.448;2023-04-03T14:02:42;10.45;50.09
68274;SHT30;55104;47.356;19.448;2023-04-03T14:05:44;10.43;51.11
68274;SHT30;55104;47.356;19.448;2023-04-03T14:08:47;10.60;51.52
68274;SHT30;55104;47.356;19.448;2023-04-03T14:11:54;10.70;50.92
68274;SHT30;55104;47.356;19.448;2023-04-03T14:14:59;10.66;51.79
68274;SHT30;55104;47.356;19.448;2023-04-03T14:18:03;10.77;51.56
68274;SHT30;55104;47.356;19.448;2023-04-03T14:21:11;10.68;49.58
68274;SHT30;55104;47.356;19.448;2023-04-03T14:24:13;10.55;49.54
68274;SHT30;55104;47.356;19.448;2023-04-03T14:27:23;10.56;49.24
68274;SHT30;55104;47.356;19.448;2023-04-03T14:30:31;10.50;50.12
68274;SHT30;55104;47.356;19.448;2023-04-03T14:33:34;10.59;48.69
68274;SHT30;55104;47.356;19.448;2023-04-03T14:36:37;10.61;49.57
68274;SHT30;55104;47.356;19.448;2023-04-03T14:39:40;10.39;48.08
68274;SHT30;55104;47.356;19.448;2023-04-03T14:42:43;10.48;50.18
68274;SHT30;55104;47.356;19.448;2023-04-03T14:45:45;10.46;48.33
68274;SHT30;55104;47.356;19.448;2023-04-03T14:48:48;10.40;48.96
68274;SHT30;55104;47.356;19.448;2023-04-03T14:51:50;10.35;48.44
68274;SHT30;55104;47.356;19.448;2023-04-03T14:54:53;10.45;49.15
68274;SHT30;55104;47.356;19.448;2023-04-03T14:57:55;10.45;49.21
68274;SHT30;55104;47.356;19.448;2023-04-03T15:00:57;10.52;49.42
68274;SHT30;55104;47.356;19.448;2023-04-03T15:03:59;10.35;48.94
68274;SHT30;55104;47.356;19.448;2023-04-03T15:07:01;10.53;49.78
68274;SHT30;55104;47.356;19.448;2023-04-03T15:10:28;10.57;49.44
68274;SHT30;55104;47.356;19.448;2023-04-03T15:13:30;10.68;49.63
68274;SHT30;55104;47.356;19.448;2023-04-03T15:16:32;10.76;49.83
68274;SHT30;55104;47.356;19.448;2023-04-03T15:19:37;10.59;50.10
68274;SHT30;55104;47.356;19.448;2023-04-03T15:22:40;10.46;50.35
68274;SHT30;55104;47.356;19.448;2023-04-03T15:25:47;10.59;50.25
68274;SHT30;55104;47.356;19.448;2023-04-03T15:28:49;10.55;49.02
68274;SHT30;55104;47.356;19.448;2023-04-03T15:31:52;10.42;48.98
68274;SHT30;55104;47.356;19.448;2023-04-03T15:34:55;10.25;49.81
68274;SHT30;55104;47.356;19.448;2023-04-03T15:37:57;10.38;52.89
68274;SHT30;55104;47.356;19.448;2023-04-03T15:41:00;10.04;56.31
68274;SHT30;55104;47.356;19.448;2023-04-03T15:44:02;9.94;57.56
68274;SHT30;55104;47.356;19.448;2023-04-03T15:47:04;9.77;56.38
68274;SHT30;55104;47.356;19.448;2023-04-03T15:50:06;9.46;56.86
68274;SHT30;55104;47.356;19.448;2023-04-03T15:53:10;9.29;56.92
68274;SHT30;55104;47.356;19.448;2023-04-03T15:56:12;9.07;57.18
68274;SHT30;55104;47.356;19.448;2023-04-03T15:59:14;8.95;57.69
68274;SHT30;55104;47.356;19.448;2023-04-03T16:02:17;8.80;58.19
68274;SHT30;55104;47.356;19.448;2023-04-03T16:05:19;8.83;58.83
68274;SHT30;55104;47.356;19.448;2023-04-03T16:08:22;8.81;58.38
68274;SHT30;55104;47.356;19.448;2023-04-03T16:11:25;8.67;58.92
68274;SHT30;55104;47.356;19.448;2023-04-03T16:14:28;8.54;59.10
68274;SHT30;55104;47.356;19.448;2023-04-03T16:17:33;8.53;60.03
68274;SHT30;55104;47.356;19.448;2023-04-03T16:20:36;8.52;60.00
68274;SHT30;55104;47.356;19.448;2023-04-03T16:23:40;8.40;59.95
68274;SHT30;55104;47.356;19.448;2023-04-03T16:26:42;8.29;59.48
68274;SHT30;55104;47.356;19.448;2023-04-03T16:29:44;8.19;59.87
68274;SHT30;55104;47.356;19.448;2023-04-03T16:32:46;8.19;60.08
68274;SHT30;55104;47.356;19.448;2023-04-03T16:35:49;8.13;59.66
68274;SHT30;55104;47.356;19.448;2023-04-03T16:38:52;8.11;60.02
68274;SHT30;55104;47.356;19.448;2023-04-03T16:41:54;8.09;59.96
68274;SHT30;55104;47.356;19.448;2023-04-03T16:44:56;8.13;60.33
68274;SHT30;55104;47.356;19.448;2023-04-03T16:48:00;7.99;59.31
68274;SHT30;55104;47.356;19.448;2023-04-03T16:51:02;7.88;58.95
68274;SHT30;55104;47.356;19.448;2023-04-03T16:54:04;7.84;59.63
68274;SHT30;55104;47.356;19.448;2023-04-03T16:57:08;7.70;60.13
68274;SHT30;55104;47.356;19.448;2023-04-03T17:00:10;7.54;59.21
68274;SHT30;55104;47.356;19.448;2023-04-03T17:03:13;7.42;60.32
68274;SHT30;55104;47.356;19.448;2023-04-03T17:06:17;7.35;60.63
68274;SHT30;55104;47.356;19.448;2023-04-03T17:09:19;7.12;60.00
68274;SHT30;55104;47.356;19.448;2023-04-03T17:12:23;7.02;60.21
68274;SHT30;55104;47.356;19.448;2023-04-03T17:15:25;6.84;61.14
68274;SHT30;55104;47.356;19.448;2023-04-03T17:18:27;6.77;61.28
68274;SHT30;55104;47.356;19.448;2023-04-03T17:21:31;6.69;61.09
68274;SHT30;55104;47.356;19.448;2023-04-03T17:24:34;6.61;60.41
68274;SHT30;55104;47.356;19.448;2023-04-03T17:27:38;6.46;60.73
68274;SHT30;55104;47.356;19.448;2023-04-03T17:30:40;6.50;61.48
68274;SHT30;55104;47.356;19.448;2023-04-03T17:33:42;6.47;60.77
68274;SHT30;55104;47.356;19.448;2023-04-03T17:36:45;6.39;61.43
68274;SHT30;55104;47.356;19.448;2023-04-03T17:39:47;6.30;61.77
68274;SHT30;55104;47.356;19.448;2023-04-03T17:42:49;6.24;61.69
68274;SHT30;55104;47.356;19.448;2023-04-03T17:45:51;6.22;61.97
68274;SHT30;55104;47.356;19.448;2023-04-03T17:48:53;6.21;61.95
68274;SHT30;55104;47.356;19.448;2023-04-03T17:51:56;6.15;61.54
68274;SHT30;55104;47.356;19.448;2023-04-03T17:54:58;6.05;61.41
68274;SHT30;55104;47.356;19.448;2023-04-03T17:58:00;5.90;61.69
68274;SHT30;55104;47.356;19.448;2023-04-03T18:01:15;5.78;61.94
68274;SHT30;55104;47.356;19.448;2023-04-03T18:04:18;5.64;61.76
68274;SHT30;55104;47.356;19.448;2023-04-03T18:07:20;5.66;62.91
68274;SHT30;55104;47.356;19.448;2023-04-03T18:10:22;5.59;63.47
68274;SHT30;55104;47.356;19.448;2023-04-03T18:13:25;5.57;62.78
68274;SHT30;55104;47.356;19.448;2023-04-03T18:16:28;5.43;61.52
68274;SHT30;55104;47.356;19.448;2023-04-03T18:19:30;5.29;61.56
68274;SHT30;55104;47.356;19.448;2023-04-03T18:22:33;5.19;61.96
68274;SHT30;55104;47.356;19.448;2023-04-03T18:25:36;5.19;62.62
68274;SHT30;55104;47.356;19.448;2023-04-03T18:28:40;5.15;62.85
68274;SHT30;55104;47.356;19.448;2023-04-03T18:31:46;5.15;63.48
68274;SHT30;55104;47.356;19.448;2023-04-03T18:34:49;5.19;64.15
68274;SHT30;55104;47.356;19.448;2023-04-03T18:37:51;5.18;63.95
68274;SHT30;55104;47.356;19.448;2023-04-03T18:40:53;5.12;63.03
68274;SHT30;55104;47.356;19.448;2023-04-03T18:43:58;4.97;63.65
68274;SHT30;55104;47.356;19.448;2023-04-03T18:47:02;4.98;63.65
68274;SHT30;55104;47.356;19.448;2023-04-03T18:50:05;5.05;63.35
68274;SHT30;55104;47.356;19.448;2023-04-03T18:53:08;4.95;63.93
68274;SHT30;55104;47.356;19.448;2023-04-03T18:56:11;4.92;63.78
68274;SHT30;55104;47.356;19.448;2023-04-03T18:59:14;4.87;63.09
68274;SHT30;55104;47.356;19.448;2023-04-03T19:02:16;4.85;63.46
68274;SHT30;55104;47.356;19.448;2023-04-03T19:05:20;4.84;62.95
68274;SHT30;55104;47.356;19.448;2023-04-03T19:08:23;4.74;62.67
68274;SHT30;55104;47.356;19.448;2023-04-03T19:11:25;4.61;62.01
68274;SHT30;55104;47.356;19.448;2023-04-03T19:14:31;4.60;61.90
68274;SHT30;55104;47.356;19.448;2023-04-03T19:17:33;4.54;62.04
68274;SHT30;55104;47.356;19.448;2023-04-03T19:20:35;4.43;61.83
68274;SHT30;55104;47.356;19.448;2023-04-03T19:23:37;4.42;61.21
68274;SHT30;55104;47.356;19.448;2023-04-03T19:26:40;4.48;61.39
68274;SHT30;55104;47.356;19.448;2023-04-03T19:29:43;4.40;62.14
68274;SHT30;55104;47.356;19.448;2023-04-03T19:32:45;4.32;62.26
68274;SHT30;55104;47.356;19.448;2023-04-03T19:35:47;4.35;61.76
68274;SHT30;55104;47.356;19.448;2023-04-03T19:38:49;4.21;61.92
68274;SHT30;55104;47.356;19.448;2023-04-03T19:41:51;4.12;60.77
68274;SHT30;55104;47.356;19.448;2023-04-03T19:44:54;4.02;60.44
68274;SHT30;55104;47.356;19.448;2023-04-03T19:47:57;4.01;61.20
68274;SHT30;55104;47.356;19.448;2023-04-03T19:51:02;4.05;62.03
68274;SHT30;55104;47.356;19.448;2023-04-03T19:54:06;4.09;61.31
68274;SHT30;55104;47.356;19.448;2023-04-03T19:57:08;4.21;60.84
68274;SHT30;55104;47.356;19.448;2023-04-03T20:00:11;3.95;60.44
68274;SHT30;55104;47.356;19.448;2023-04-03T20:03:15;3.99;61.48
68274;SHT30;55104;47.356;19.448;2023-04-03T20:06:17;3.90;60.27
68274;SHT30;55104;47.356;19.448;2023-04-03T20:09:19;3.90;60.48
68274;SHT30;55104;47.356;19.448;2023-04-03T20:12:22;3.90;61.43
68274;SHT30;55104;47.356;19.448;2023-04-03T20:15:24;3.94;61.36
68274;SHT30;55104;47.356;19.448;2023-04-03T20:18:27;3.87;60.79
68274;SHT30;55104;47.356;19.448;2023-04-03T20:21:31;3.85;60.01